sensor_id;sensor_type;location;lat;lon;timestamp;temperature;humidity
51996;DHT22;38010;53.264;6.592;2022-10-28T00:01:20;17.00;99.90
51996;DHT22;38010;53.264;6.592;2022-10-28T00:03:57;17.10;99.90
51996;DHT22;38010;53.264;6.592;2022-10-28T00:06:34;17.00;99.90
51996;DHT22;38010;53.264;6.592;2022-10-28T00:09:00;17.10;99.90
51996;DHT22;38010;53.264;6.592;2022-10-28T00:11:35;17.00;99.90
51996;DHT22;38010;53.264;6.592;2022-10-28T00:14:05;17.00;99.90
51996;DHT22;38010;53.264;6.592;2022-10-28T00:16:33;17.00;99.90
51996;DHT22;38010;53.264;6.592;2022-10-28T00:19:00;17.10;99.90
51996;DHT22;38010;53.264;6.592;2022-10-28T00:21:29;17.10;99.90
51996;DHT22;38010;53.264;6.592;2022-10-28T00:23:56;17.10;99.90
51996;DHT22;38010;53.264;6.592;2022-10-28T00:26:24;17.10;99.90
51996;DHT22;38010;53.264;6.592;2022-10-28T00:28:55;17.00;99.90
51996;DHT22;38010;53.264;6.592;2022-10-28T00:31:23;17.00;99.90
51996;DHT22;38010;53.264;6.592;2022-10-28T00:33:50;17.00;99.90
51996;DHT22;38010;53.264;6.592;2022-10-28T00:36:21;17.00;99.90
51996;DHT22;38010;53.264;6.592;2022-10-28T00:38:48;17.00;99.90
51996;DHT22;38010;53.264;6.592;2022-10-28T00:41:21;17.10;99.90
51996;DHT22;38010;53.264;6.592;2022-10-28T00:43:52;17.00;99.90
51996;DHT22;38010;53.264;6.592;2022-10-28T00:46:25;17.10;99.90
51996;DHT22;38010;53.264;6.592;2022-10-28T00:49:14;17.00;99.90
51996;DHT22;38010;53.264;6.592;2022-10-28T00:51:41;17.00;99.90
51996;DHT22;38010;53.264;6.592;2022-10-28T00:54:07;17.00;99.90
51996;DHT22;38010;53.264;6.592;2022-10-28T00:56:39;17.10;99.90
51996;DHT22;38010;53.264;6.592;2022-10-28T00:59:10;17.10;99.90
51996;DHT22;38010;53.264;6.592;2022-10-28T01:01:37;17.00;99.90
51996;DHT22;38010;53.264;6.592;2022-10-28T01:04:03;17.10;99.90
51996;DHT22;38010;53.264;6.592;2022-10-28T01:06:29;17.10;99.90
51996;DHT22;38010;53.264;6.592;2022-10-28T01:08:54;17.00;99.90
51996;DHT22;38010;53.264;6.592;2022-10-28T01:14:18;17.10;99.90
51996;DHT22;38010;53.264;6.592;2022-10-28T01:23:05;17.00;99.90
51996;DHT22;38010;53.264;6.592;2022-10-28T01:31:27;17.10;99.90
51996;DHT22;38010;53.264;6.592;2022-10-28T01:34:08;17.00;99.90
51996;DHT22;38010;53.264;6.592;2022-10-28T01:39:27;17.00;99.90
51996;DHT22;38010;53.264;6.592;2022-10-28T01:42:15;17.10;99.90
51996;DHT22;38010;53.264;6.592;2022-10-28T01:50:22;17.10;99.90
51996;DHT22;38010;53.264;6.592;2022-10-28T01:52:51;17.10;99.90
51996;DHT22;38010;53.264;6.592;2022-10-28T01:55:22;17.10;99.90
51996;DHT22;38010;53.264;6.592;2022-10-28T01:57:51;17.00;99.90
51996;DHT22;38010;53.264;6.592;2022-10-28T02:00:18;17.00;99.90
51996;DHT22;38010;53.264;6.592;2022-10-28T02:02:45;17.00;99.90
51996;DHT22;38010;53.264;6.592;2022-10-28T02:05:47;17.00;99.90
51996;DHT22;38010;53.264;6.592;2022-10-28T02:16:14;17.10;99.90
51996;DHT22;38010;53.264;6.592;2022-10-28T02:22:12;17.10;99.90
51996;DHT22;38010;53.264;6.592;2022-10-28T02:29:50;17.00;99.90
51996;DHT22;38010;53.264;6.592;2022-10-28T02:32:20;17.10;99.90
51996;DHT22;38010;53.264;6.592;2022-10-28T02:34:52;17.10;99.90
51996;DHT22;38010;53.264;6.592;2022-10-28T02:37:28;17.00;99.90
51996;DHT22;38010;53.264;6.592;2022-10-28T02:39:58;17.10;99.90
51996;DHT22;38010;53.264;6.592;2022-10-28T02:42:34;17.00;99.90
51996;DHT22;38010;53.264;6.592;2022-10-28T02:45:15;17.10;99.90
51996;DHT22;38010;53.264;6.592;2022-10-28T02:47:46;17.00;99.90
51996;DHT22;38010;53.264;6.592;2022-10-28T02:50:14;17.00;99.90
51996;DHT22;38010;53.264;6.592;2022-10-28T02:52:44;17.00;99.90
51996;DHT22;38010;53.264;6.592;2022-10-28T02:55:11;17.10;99.90
51996;DHT22;38010;53.264;6.592;2022-10-28T02:57:40;17.10;99.90
51996;DHT22;38010;53.264;6.592;2022-10-28T03:00:17;17.00;99.90
51996;DHT22;38010;53.264;6.592;2022-10-28T03:02:44;17.00;99.90
51996;DHT22;38010;53.264;6.592;2022-10-28T03:05:10;17.00;99.90
51996;DHT22;38010;53.264;6.592;2022-10-28T03:07:35;17.00;99.90
51996;DHT22;38010;53.264;6.592;2022-10-28T03:10:01;17.00;99.90
51996;DHT22;38010;53.264;6.592;2022-10-28T03:12:27;17.10;99.90
51996;DHT22;38010;53.264;6.592;2022-10-28T03:14:52;17.10;99.90
51996;DHT22;38010;53.264;6.592;2022-10-28T03:17:18;17.10;99.90
51996;DHT22;38010;53.264;6.592;2022-10-28T03:19:43;17.00;99.90
51996;DHT22;38010;53.264;6.592;2022-10-28T03:22:09;17.00;99.90
51996;DHT22;38010;53.264;6.592;2022-10-28T03:24:35;17.00;99.90
51996;DHT22;38010;53.264;6.592;2022-10-28T03:27:00;17.00;99.90
51996;DHT22;38010;53.264;6.592;2022-10-28T03:29:26;17.00;99.90
51996;DHT22;38010;53.264;6.592;2022-10-28T03:31:52;17.10;99.90
51996;DHT22;38010;53.264;6.592;2022-10-28T03:34:17;17.10;99.90
51996;DHT22;38010;53.264;6.592;2022-10-28T03:36:43;17.00;99.90
51996;DHT22;38010;53.264;6.592;2022-10-28T03:39:09;17.00;99.90
51996;DHT22;38010;53.264;6.592;2022-10-28T03:41:34;17.00;99.90
51996;DHT22;38010;53.264;6.592;2022-10-28T03:44:00;17.10;99.90
51996;DHT22;38010;53.264;6.592;2022-10-28T03:46:26;17.00;99.90
51996;DHT22;38010;53.264;6.592;2022-10-28T03:48:51;17.00;99.90
51996;DHT22;38010;53.264;6.592;2022-10-28T03:51:17;17.10;99.90
51996;DHT22;38010;53.264;6.592;2022-10-28T03:53:43;17.00;99.90
51996;DHT22;38010;53.264;6.592;2022-10-28T03:56:09;17.10;99.90
51996;DHT22;38010;53.264;6.592;2022-10-28T03:58:36;17.00;99.90
51996;DHT22;38010;53.264;6.592;2022-10-28T04:01:01;17.00;99.90
51996;DHT22;38010;53.264;6.592;2022-10-28T04:03:27;17.10;99.90
51996;DHT22;38010;53.264;6.592;2022-10-28T04:05:53;17.10;99.90
51996;DHT22;38010;53.264;6.592;2022-10-28T04:08:19;17.10;99.90
51996;DHT22;38010;53.264;6.592;2022-10-28T04:10:45;17.00;99.90
51996;DHT22;38010;53.264;6.592;2022-10-28T04:13:11;17.00;99.90
51996;DHT22;38010;53.264;6.592;2022-10-28T04:15:37;17.10;99.90
51996;DHT22;38010;53.264;6.592;2022-10-28T04:18:03;17.00;99.90
51996;DHT22;38010;53.264;6.592;2022-10-28T04:20:29;17.00;99.90
51996;DHT22;38010;53.264;6.592;2022-10-28T04:22:56;17.00;99.90
51996;DHT22;38010;53.264;6.592;2022-10-28T04:25:22;16.90;99.90
51996;DHT22;38010;53.264;6.592;2022-10-28T04:27:48;17.00;99.90
51996;DHT22;38010;53.264;6.592;2022-10-28T04:30:14;17.00;99.90
51996;DHT22;38010;53.264;6.592;2022-10-28T04:32:41;17.00;99.90
51996;DHT22;38010;53.264;6.592;2022-10-28T04:35:07;17.00;99.90
51996;DHT22;38010;53.264;6.592;2022-10-28T04:37:33;17.10;99.90
51996;DHT22;38010;53.264;6.592;2022-10-28T04:39:59;17.00;99.90
51996;DHT22;38010;53.264;6.592;2022-10-28T04:42:25;17.00;99.90
51996;DHT22;38010;53.264;6.592;2022-10-28T04:44:50;17.00;99.90
51996;DHT22;38010;53.264;6.592;2022-10-28T04:47:16;17.00;99.90
51996;DHT22;38010;53.264;6.592;2022-10-28T04:49:42;17.00;99.90
51996;DHT22;38010;53.264;6.592;2022-10-28T04:52:09;17.00;99.90
51996;DHT22;38010;53.264;6.592;2022-10-28T04:54:35;17.00;99.90
51996;DHT22;38010;53.264;6.592;2022-10-28T04:57:00;17.00;99.90
51996;DHT22;38010;53.264;6.592;2022-10-28T04:59:26;17.00;99.90
51996;DHT22;38010;53.264;6.592;2022-10-28T05:01:52;17.00;99.90
51996;DHT22;38010;53.264;6.592;2022-10-28T05:04:17;17.00;99.90
51996;DHT22;38010;53.264;6.592;2022-10-28T05:06:43;17.00;99.90
51996;DHT22;38010;53.264;6.592;2022-10-28T05:09:08;17.00;99.90
51996;DHT22;38010;53.264;6.592;2022-10-28T05:11:34;17.00;99.90
51996;DHT22;38010;53.264;6.592;2022-10-28T05:14:00;17.00;99.90
51996;DHT22;38010;53.264;6.592;2022-10-28T05:16:25;17.00;99.90
51996;DHT22;38010;53.264;6.592;2022-10-28T05:18:51;17.00;99.90
51996;DHT22;38010;53.264;6.592;2022-10-28T05:21:17;17.00;99.90
51996;DHT22;38010;53.264;6.592;2022-10-28T05:23:42;17.00;99.90
51996;DHT22;38010;53.264;6.592;2022-10-28T05:26:08;17.00;99.90
51996;DHT22;38010;53.264;6.592;2022-10-28T05:28:34;17.00;99.90
51996;DHT22;38010;53.264;6.592;2022-10-28T05:30:59;17.00;99.90
51996;DHT22;38010;53.264;6.592;2022-10-28T05:33:25;17.00;99.90
51996;DHT22;38010;53.264;6.592;2022-10-28T05:35:51;17.00;99.90
51996;DHT22;38010;53.264;6.592;2022-10-28T05:38:17;17.00;99.90
51996;DHT22;38010;53.264;6.592;2022-10-28T05:40:42;17.00;99.90
51996;DHT22;38010;53.264;6.592;2022-10-28T05:43:09;17.00;99.90
51996;DHT22;38010;53.264;6.592;2022-10-28T05:45:35;17.00;99.90
51996;DHT22;38010;53.264;6.592;2022-10-28T05:48:01;17.00;99.90
51996;DHT22;38010;53.264;6.592;2022-10-28T05:50:27;17.00;99.90
51996;DHT22;38010;53.264;6.592;2022-10-28T05:52:56;17.00;99.90
51996;DHT22;38010;53.264;6.592;2022-10-28T05:55:24;17.00;99.90
51996;DHT22;38010;53.264;6.592;2022-10-28T05:57:53;17.00;99.90
51996;DHT22;38010;53.264;6.592;2022-10-28T06:00:21;17.10;99.90
51996;DHT22;38010;53.264;6.592;2022-10-28T06:02:49;17.00;99.90
51996;DHT22;38010;53.264;6.592;2022-10-28T06:05:15;17.10;99.90
51996;DHT22;38010;53.264;6.592;2022-10-28T06:07:41;17.00;99.90
51996;DHT22;38010;53.264;6.592;2022-10-28T06:10:09;17.00;99.90
51996;DHT22;38010;53.264;6.592;2022-10-28T06:12:35;17.00;99.90
51996;DHT22;38010;53.264;6.592;2022-10-28T06:15:01;17.00;99.90
51996;DHT22;38010;53.264;6.592;2022-10-28T06:17:26;17.00;99.90
51996;DHT22;38010;53.264;6.592;2022-10-28T06:19:52;17.10;99.90
51996;DHT22;38010;53.264;6.592;2022-10-28T06:22:18;17.00;99.90
51996;DHT22;38010;53.264;6.592;2022-10-28T06:24:44;17.00;99.90
51996;DHT22;38010;53.264;6.592;2022-10-28T06:27:09;17.10;99.90
51996;DHT22;38010;53.264;6.592;2022-10-28T06:29:35;17.00;99.90
51996;DHT22;38010;53.264;6.592;2022-10-28T06:32:01;17.00;99.90
51996;DHT22;38010;53.264;6.592;2022-10-28T06:34:27;17.10;99.90
51996;DHT22;38010;53.264;6.592;2022-10-28T06:36:52;17.10;99.90
51996;DHT22;38010;53.264;6.592;2022-10-28T06:39:18;17.10;99.90
51996;DHT22;38010;53.264;6.592;2022-10-28T06:41:44;17.20;99.90
51996;DHT22;38010;53.264;6.592;2022-10-28T06:44:10;17.20;99.90
51996;DHT22;38010;53.264;6.592;2022-10-28T06:46:36;17.20;99.90
51996;DHT22;38010;53.264;6.592;2022-10-28T06:49:02;17.20;99.90
51996;DHT22;38010;53.264;6.592;2022-10-28T06:51:29;17.20;99.90
51996;DHT22;38010;53.264;6.592;2022-10-28T06:53:55;17.20;99.90
51996;DHT22;38010;53.264;6.592;2022-10-28T06:56:21;17.20;99.90
51996;DHT22;38010;53.264;6.592;2022-10-28T06:58:54;17.30;99.90
51996;DHT22;38010;53.264;6.592;2022-10-28T07:01:19;17.30;99.90
51996;DHT22;38010;53.264;6.592;2022-10-28T07:03:46;17.30;99.90
51996;DHT22;38010;53.264;6.592;2022-10-28T07:06:13;17.30;99.90
51996;DHT22;38010;53.264;6.592;2022-10-28T07:08:38;17.30;99.90
51996;DHT22;38010;53.264;6.592;2022-10-28T07:11:04;17.30;99.90
51996;DHT22;38010;53.264;6.592;2022-10-28T07:13:30;17.40;99.90
51996;DHT22;38010;53.264;6.592;2022-10-28T07:15:57;17.40;99.90
51996;DHT22;38010;53.264;6.592;2022-10-28T07:18:24;17.40;99.90
51996;DHT22;38010;53.264;6.592;2022-10-28T07:20:50;17.40;99.90
51996;DHT22;38010;53.264;6.592;2022-10-28T07:23:16;17.40;99.90
51996;DHT22;38010;53.264;6.592;2022-10-28T07:25:42;17.40;99.90
51996;DHT22;38010;53.264;6.592;2022-10-28T07:28:08;17.40;99.90
51996;DHT22;38010;53.264;6.592;2022-10-28T07:30:33;17.40;99.90
51996;DHT22;38010;53.264;6.592;2022-10-28T07:32:59;17.40;99.90
51996;DHT22;38010;53.264;6.592;2022-10-28T07:35:29;17.40;99.90
51996;DHT22;38010;53.264;6.592;2022-10-28T07:37:56;17.40;99.90
51996;DHT22;38010;53.264;6.592;2022-10-28T07:40:22;17.40;99.90
51996;DHT22;38010;53.264;6.592;2022-10-28T07:42:48;17.40;99.90
51996;DHT22;38010;53.264;6.592;2022-10-28T07:45:14;17.50;99.90
51996;DHT22;38010;53.264;6.592;2022-10-28T07:47:40;17.40;99.90
51996;DHT22;38010;53.264;6.592;2022-10-28T07:50:06;17.50;99.90
51996;DHT22;38010;53.264;6.592;2022-10-28T07:52:33;17.40;99.90
51996;DHT22;38010;53.264;6.592;2022-10-28T07:54:59;17.40;99.90
51996;DHT22;38010;53.264;6.592;2022-10-28T07:57:25;17.40;99.90
51996;DHT22;38010;53.264;6.592;2022-10-28T07:59:50;17.40;99.90
51996;DHT22;38010;53.264;6.592;2022-10-28T08:02:19;17.40;99.90
51996;DHT22;38010;53.264;6.592;2022-10-28T08:04:44;17.40;99.90
51996;DHT22;38010;53.264;6.592;2022-10-28T08:07:11;17.40;99.90
51996;DHT22;38010;53.264;6.592;2022-10-28T08:09:38;17.50;99.90
51996;DHT22;38010;53.264;6.592;2022-10-28T08:12:04;17.40;99.90
51996;DHT22;38010;53.264;6.592;2022-10-28T08:14:30;17.40;99.90
51996;DHT22;38010;53.264;6.592;2022-10-28T08:16:56;17.50;99.90
51996;DHT22;38010;53.264;6.592;2022-10-28T08:19:21;17.40;99.90
51996;DHT22;38010;53.264;6.592;2022-10-28T08:21:47;17.40;99.90
51996;DHT22;38010;53.264;6.592;2022-10-28T08:24:13;17.50;99.90
51996;DHT22;38010;53.264;6.592;2022-10-28T08:26:38;17.40;99.90
51996;DHT22;38010;53.264;6.592;2022-10-28T08:29:04;17.50;99.90
51996;DHT22;38010;53.264;6.592;2022-10-28T08:31:31;17.40;99.90
51996;DHT22;38010;53.264;6.592;2022-10-28T08:33:57;17.50;99.90
51996;DHT22;38010;53.264;6.592;2022-10-28T08:36:23;17.50;99.90
51996;DHT22;38010;53.264;6.592;2022-10-28T08:38:49;17.50;99.90
51996;DHT22;38010;53.264;6.592;2022-10-28T08:49:56;17.50;99.90
51996;DHT22;38010;53.264;6.592;2022-10-28T08:52:30;17.50;99.90
51996;DHT22;38010;53.264;6.592;2022-10-28T08:55:00;17.50;99.90
51996;DHT22;38010;53.264;6.592;2022-10-28T08:57:38;17.50;99.90
51996;DHT22;38010;53.264;6.592;2022-10-28T09:00:28;17.50;99.90
51996;DHT22;38010;53.264;6.592;2022-10-28T09:05:41;17.50;99.90
51996;DHT22;38010;53.264;6.592;2022-10-28T09:08:22;17.50;99.90
51996;DHT22;38010;53.264;6.592;2022-10-28T09:18:57;17.50;99.90
51996;DHT22;38010;53.264;6.592;2022-10-28T09:21:30;17.50;99.90
51996;DHT22;38010;53.264;6.592;2022-10-28T09:23:58;17.50;99.90
51996;DHT22;38010;53.264;6.592;2022-10-28T09:26:40;17.50;99.90
51996;DHT22;38010;53.264;6.592;2022-10-28T09:29:12;17.50;99.90
51996;DHT22;38010;53.264;6.592;2022-10-28T09:31:47;17.50;99.90
51996;DHT22;38010;53.264;6.592;2022-10-28T09:37:03;17.50;99.90
51996;DHT22;38010;53.264;6.592;2022-10-28T09:39:40;17.50;99.90
51996;DHT22;38010;53.264;6.592;2022-10-28T09:42:12;17.50;99.90
51996;DHT22;38010;53.264;6.592;2022-10-28T09:44:43;17.50;99.90
51996;DHT22;38010;53.264;6.592;2022-10-28T09:47:22;17.50;99.90
51996;DHT22;38010;53.264;6.592;2022-10-28T09:49:50;17.50;99.90
51996;DHT22;38010;53.264;6.592;2022-10-28T09:52:23;17.50;99.90
51996;DHT22;38010;53.264;6.592;2022-10-28T09:54:52;17.50;99.90
51996;DHT22;38010;53.264;6.592;2022-10-28T09:57:19;17.50;99.90
51996;DHT22;38010;53.264;6.592;2022-10-28T09:59:45;17.50;99.90
51996;DHT22;38010;53.264;6.592;2022-10-28T10:02:31;17.50;99.90
51996;DHT22;38010;53.264;6.592;2022-10-28T10:04:59;17.50;99.90
51996;DHT22;38010;53.264;6.592;2022-10-28T10:07:39;17.50;99.90
51996;DHT22;38010;53.264;6.592;2022-10-28T10:10:14;17.50;99.90
51996;DHT22;38010;53.264;6.592;2022-10-28T10:12:40;17.50;99.90
51996;DHT22;38010;53.264;6.592;2022-10-28T10:15:12;17.50;99.90
51996;DHT22;38010;53.264;6.592;2022-10-28T10:17:42;17.50;99.90
51996;DHT22;38010;53.264;6.592;2022-10-28T10:20:10;17.50;99.90
51996;DHT22;38010;53.264;6.592;2022-10-28T10:22:37;17.50;99.90
51996;DHT22;38010;53.264;6.592;2022-10-28T10:27:51;17.50;99.90
51996;DHT22;38010;53.264;6.592;2022-10-28T10:30:23;17.50;99.90
51996;DHT22;38010;53.264;6.592;2022-10-28T10:32:50;17.60;99.90
51996;DHT22;38010;53.264;6.592;2022-10-28T10:35:23;17.60;99.90
51996;DHT22;38010;53.264;6.592;2022-10-28T10:37:50;17.60;99.90
51996;DHT22;38010;53.264;6.592;2022-10-28T10:42:43;17.60;99.90
51996;DHT22;38010;53.264;6.592;2022-10-28T10:45:24;17.60;99.90
51996;DHT22;38010;53.264;6.592;2022-10-28T10:48:10;17.60;99.90
51996;DHT22;38010;53.264;6.592;2022-10-28T10:50:38;17.60;99.90
51996;DHT22;38010;53.264;6.592;2022-10-28T10:53:04;17.60;99.90
51996;DHT22;38010;53.264;6.592;2022-10-28T10:55:38;17.60;99.90
51996;DHT22;38010;53.264;6.592;2022-10-28T10:58:13;17.60;99.90
51996;DHT22;38010;53.264;6.592;2022-10-28T11:00:46;17.60;99.90
51996;DHT22;38010;53.264;6.592;2022-10-28T11:03:20;17.60;99.90
51996;DHT22;38010;53.264;6.592;2022-10-28T11:05:51;17.60;99.90
51996;DHT22;38010;53.264;6.592;2022-10-28T11:08:39;17.60;99.90
51996;DHT22;38010;53.264;6.592;2022-10-28T11:11:19;17.60;99.90
51996;DHT22;38010;53.264;6.592;2022-10-28T11:13:47;17.60;99.90
51996;DHT22;38010;53.264;6.592;2022-10-28T11:16:23;17.60;99.90
51996;DHT22;38010;53.264;6.592;2022-10-28T11:18:52;17.60;99.90
51996;DHT22;38010;53.264;6.592;2022-10-28T11:21:36;17.60;99.90
51996;DHT22;38010;53.264;6.592;2022-10-28T11:24:29;17.60;99.90
51996;DHT22;38010;53.264;6.592;2022-10-28T11:27:22;17.60;99.90
51996;DHT22;38010;53.264;6.592;2022-10-28T11:29:51;17.60;99.90
51996;DHT22;38010;53.264;6.592;2022-10-28T11:35:56;17.60;99.90
51996;DHT22;38010;53.264;6.592;2022-10-28T11:41:46;17.60;99.90
51996;DHT22;38010;53.264;6.592;2022-10-28T11:44:49;17.60;99.90
51996;DHT22;38010;53.264;6.592;2022-10-28T11:47:32;17.60;99.90
51996;DHT22;38010;53.264;6.592;2022-10-28T11:50:23;17.60;99.90
51996;DHT22;38010;53.264;6.592;2022-10-28T11:53:13;17.60;99.90
51996;DHT22;38010;53.264;6.592;2022-10-28T11:55:53;17.60;99.90
51996;DHT22;38010;53.264;6.592;2022-10-28T12:04:33;17.60;99.90
51996;DHT22;38010;53.264;6.592;2022-10-28T12:18:17;17.60;99.90
51996;DHT22;38010;53.264;6.592;2022-10-28T12:23:21;17.60;99.90
51996;DHT22;38010;53.264;6.592;2022-10-28T12:25:51;17.60;99.90
51996;DHT22;38010;53.264;6.592;2022-10-28T12:28:24;17.60;99.90
51996;DHT22;38010;53.264;6.592;2022-10-28T12:30:51;17.60;99.90
51996;DHT22;38010;53.264;6.592;2022-10-28T12:33:24;17.60;99.90
51996;DHT22;38010;53.264;6.592;2022-10-28T12:36:18;17.60;99.90
51996;DHT22;38010;53.264;6.592;2022-10-28T12:39:14;17.60;99.90
51996;DHT22;38010;53.264;6.592;2022-10-28T12:44:31;17.60;99.90
51996;DHT22;38010;53.264;6.592;2022-10-28T12:47:18;17.50;99.90
51996;DHT22;38010;53.264;6.592;2022-10-28T12:50:13;17.50;99.90
51996;DHT22;38010;53.264;6.592;2022-10-28T12:55:44;17.50;99.90
51996;DHT22;38010;53.264;6.592;2022-10-28T13:01:07;17.60;99.90
51996;DHT22;38010;53.264;6.592;2022-10-28T13:03:35;17.50;99.90
51996;DHT22;38010;53.264;6.592;2022-10-28T13:08:50;17.50;99.90
51996;DHT22;38010;53.264;6.592;2022-10-28T13:27:15;17.60;99.90
51996;DHT22;38010;53.264;6.592;2022-10-28T13:29:42;17.60;99.90
51996;DHT22;38010;53.264;6.592;2022-10-28T13:32:39;17.70;99.90
51996;DHT22;38010;53.264;6.592;2022-10-28T13:35:23;17.70;99.90
51996;DHT22;38010;53.264;6.592;2022-10-28T13:37:50;17.70;99.90
51996;DHT22;38010;53.264;6.592;2022-10-28T13:43:18;17.70;99.90
51996;DHT22;38010;53.264;6.592;2022-10-28T13:45:52;17.80;99.90
51996;DHT22;38010;53.264;6.592;2022-10-28T14:01:36;17.70;99.90
51996;DHT22;38010;53.264;6.592;2022-10-28T14:04:04;17.70;99.90
51996;DHT22;38010;53.264;6.592;2022-10-28T14:06:31;17.70;99.90
51996;DHT22;38010;53.264;6.592;2022-10-28T14:08:58;17.70;99.90
51996;DHT22;38010;53.264;6.592;2022-10-28T14:11:25;17.70;99.90
51996;DHT22;38010;53.264;6.592;2022-10-28T14:14:02;17.70;99.90
51996;DHT22;38010;53.264;6.592;2022-10-28T14:16:35;17.60;99.90
51996;DHT22;38010;53.264;6.592;2022-10-28T14:19:05;17.60;99.90
51996;DHT22;38010;53.264;6.592;2022-10-28T14:22:00;17.70;99.90
51996;DHT22;38010;53.264;6.592;2022-10-28T14:24:33;17.60;99.90
51996;DHT22;38010;53.264;6.592;2022-10-28T14:34:58;17.60;99.90
51996;DHT22;38010;53.264;6.592;2022-10-28T14:40:24;17.60;99.90
51996;DHT22;38010;53.264;6.592;2022-10-28T14:45:58;17.60;99.90
51996;DHT22;38010;53.264;6.592;2022-10-28T14:51:14;17.60;99.90
51996;DHT22;38010;53.264;6.592;2022-10-28T14:53:41;17.60;99.90
51996;DHT22;38010;53.264;6.592;2022-10-28T14:56:26;17.60;99.90
51996;DHT22;38010;53.264;6.592;2022-10-28T14:58:56;17.60;99.90
51996;DHT22;38010;53.264;6.592;2022-10-28T15:01:25;17.60;99.90
51996;DHT22;38010;53.264;6.592;2022-10-28T15:03:57;17.60;99.90
51996;DHT22;38010;53.264;6.592;2022-10-28T15:06:35;17.60;99.90
51996;DHT22;38010;53.264;6.592;2022-10-28T15:09:14;17.60;99.90
51996;DHT22;38010;53.264;6.592;2022-10-28T15:11:49;17.60;99.90
51996;DHT22;38010;53.264;6.592;2022-10-28T15:16:48;17.60;99.90
51996;DHT22;38010;53.264;6.592;2022-10-28T15:19:26;17.60;99.90
51996;DHT22;38010;53.264;6.592;2022-10-28T15:24:24;17.60;99.90
51996;DHT22;38010;53.264;6.592;2022-10-28T15:26:54;17.60;99.90
51996;DHT22;38010;53.264;6.592;2022-10-28T15:29:21;17.60;99.90
51996;DHT22;38010;53.264;6.592;2022-10-28T15:34:44;17.60;99.90
51996;DHT22;38010;53.264;6.592;2022-10-28T15:37:15;17.60;99.90
51996;DHT22;38010;53.264;6.592;2022-10-28T15:39:42;17.60;99.90
51996;DHT22;38010;53.264;6.592;2022-10-28T15:42:42;17.60;99.90
51996;DHT22;38010;53.264;6.592;2022-10-28T15:45:22;17.60;99.90
51996;DHT22;38010;53.264;6.592;2022-10-28T15:47:47;17.60;99.90
51996;DHT22;38010;53.264;6.592;2022-10-28T15:52:43;17.60;99.90
51996;DHT22;38010;53.264;6.592;2022-10-28T16:00:23;17.60;99.90
51996;DHT22;38010;53.264;6.592;2022-10-28T16:03:00;17.60;99.90
51996;DHT22;38010;53.264;6.592;2022-10-28T16:08:03;17.60;99.90
51996;DHT22;38010;53.264;6.592;2022-10-28T16:10:57;17.60;99.90
51996;DHT22;38010;53.264;6.592;2022-10-28T16:13:39;17.60;99.90
51996;DHT22;38010;53.264;6.592;2022-10-28T16:16:09;17.60;99.90
51996;DHT22;38010;53.264;6.592;2022-10-28T16:18:46;17.60;99.90
51996;DHT22;38010;53.264;6.592;2022-10-28T16:21:20;17.60;99.90
51996;DHT22;38010;53.264;6.592;2022-10-28T16:23:49;17.60;99.90
51996;DHT22;38010;53.264;6.592;2022-10-28T16:26:16;17.60;99.90
51996;DHT22;38010;53.264;6.592;2022-10-28T16:28:42;17.60;99.90
51996;DHT22;38010;53.264;6.592;2022-10-28T16:31:14;17.60;99.90
51996;DHT22;38010;53.264;6.592;2022-10-28T16:33:40;17.60;99.90
51996;DHT22;38010;53.264;6.592;2022-10-28T16:36:06;17.60;99.90
51996;DHT22;38010;53.264;6.592;2022-10-28T16:38:32;17.60;99.90
51996;DHT22;38010;53.264;6.592;2022-10-28T16:40:58;17.60;99.90
51996;DHT22;38010;53.264;6.592;2022-10-28T16:43:26;17.60;99.90
51996;DHT22;38010;53.264;6.592;2022-10-28T16:45:54;17.60;99.90
51996;DHT22;38010;53.264;6.592;2022-10-28T16:48:22;17.60;99.90
51996;DHT22;38010;53.264;6.592;2022-10-28T16:50:50;17.60;99.90
51996;DHT22;38010;53.264;6.592;2022-10-28T16:53:17;17.60;99.90
51996;DHT22;38010;53.264;6.592;2022-10-28T16:55:43;17.60;99.90
51996;DHT22;38010;53.264;6.592;2022-10-28T16:58:10;17.60;99.90
51996;DHT22;38010;53.264;6.592;2022-10-28T17:00:36;17.60;99.90
51996;DHT22;38010;53.264;6.592;2022-10-28T17:03:03;17.60;99.90
51996;DHT22;38010;53.264;6.592;2022-10-28T17:05:29;17.60;99.90
51996;DHT22;38010;53.264;6.592;2022-10-28T17:07:55;17.60;99.90
51996;DHT22;38010;53.264;6.592;2022-10-28T17:10:22;17.60;99.90
51996;DHT22;38010;53.264;6.592;2022-10-28T17:12:49;17.60;99.90
51996;DHT22;38010;53.264;6.592;2022-10-28T17:15:15;17.60;99.90
51996;DHT22;38010;53.264;6.592;2022-10-28T17:17:40;17.60;99.90
51996;DHT22;38010;53.264;6.592;2022-10-28T17:20:06;17.60;99.90
51996;DHT22;38010;53.264;6.592;2022-10-28T17:22:32;17.60;99.90
51996;DHT22;38010;53.264;6.592;2022-10-28T17:24:58;17.60;99.90
51996;DHT22;38010;53.264;6.592;2022-10-28T17:27:24;17.60;99.90
51996;DHT22;38010;53.264;6.592;2022-10-28T17:29:50;17.60;99.90
51996;DHT22;38010;53.264;6.592;2022-10-28T17:32:16;17.60;99.90
51996;DHT22;38010;53.264;6.592;2022-10-28T17:34:41;17.60;99.90
51996;DHT22;38010;53.264;6.592;2022-10-28T17:37:07;17.60;99.90
51996;DHT22;38010;53.264;6.592;2022-10-28T17:39:33;17.60;99.90
51996;DHT22;38010;53.264;6.592;2022-10-28T17:41:58;17.60;99.90
51996;DHT22;38010;53.264;6.592;2022-10-28T17:44:24;17.60;99.90
51996;DHT22;38010;53.264;6.592;2022-10-28T17:46:51;17.60;99.90
51996;DHT22;38010;53.264;6.592;2022-10-28T17:49:17;17.60;99.90
51996;DHT22;38010;53.264;6.592;2022-10-28T17:51:43;17.70;99.90
51996;DHT22;38010;53.264;6.592;2022-10-28T17:54:09;17.60;99.90
51996;DHT22;38010;53.264;6.592;2022-10-28T17:56:35;17.60;99.90
51996;DHT22;38010;53.264;6.592;2022-10-28T17:59:02;17.60;99.90
51996;DHT22;38010;53.264;6.592;2022-10-28T18:01:30;17.60;99.90
51996;DHT22;38010;53.264;6.592;2022-10-28T18:03:56;17.70;99.90
51996;DHT22;38010;53.264;6.592;2022-10-28T18:06:22;17.60;99.90
51996;DHT22;38010;53.264;6.592;2022-10-28T18:08:48;17.60;99.90
51996;DHT22;38010;53.264;6.592;2022-10-28T18:11:15;17.60;99.90
51996;DHT22;38010;53.264;6.592;2022-10-28T18:13:43;17.60;99.90
51996;DHT22;38010;53.264;6.592;2022-10-28T18:16:15;17.70;99.90
51996;DHT22;38010;53.264;6.592;2022-10-28T18:18:41;17.60;99.90
51996;DHT22;38010;53.264;6.592;2022-10-28T18:21:08;17.70;99.90
51996;DHT22;38010;53.264;6.592;2022-10-28T18:23:34;17.70;99.90
51996;DHT22;38010;53.264;6.592;2022-10-28T18:26:05;17.70;99.90
51996;DHT22;38010;53.264;6.592;2022-10-28T18:28:33;17.70;99.90
51996;DHT22;38010;53.264;6.592;2022-10-28T18:31:01;17.60;99.90
51996;DHT22;38010;53.264;6.592;2022-10-28T18:33:30;17.70;99.90
51996;DHT22;38010;53.264;6.592;2022-10-28T18:36:00;17.70;99.90
51996;DHT22;38010;53.264;6.592;2022-10-28T18:38:26;17.70;99.90